Time;durP1;ratioP1;P1;durP2;ratioP2;P2;SDS_P1;SDS_P2;PMS_P1;PMS_P2;Temp;Humidity;BMP_temperature;BMP_pressure;BME280_temperature;BME280_humidity;BME280_pressure;Samples;Min_cycle;Max_cycle;Signal;HPM_P1;HPM_P2
2022/08/17 00:01:01;;;;;;;26.45;16.75;;;20.10;99.90;;;;;;5031819;28;20033;-56
2022/08/17 00:03:30;;;;;;;21.33;16.63;;;20.10;99.90;;;;;;5031040;28;20049;-57
2022/08/17 00:05:58;;;;;;;21.95;15.23;;;20.20;99.90;;;;;;5030813;28;20037;-57
2022/08/17 00:08:33;;;;;;;28.23;16.77;;;20.20;99.90;;;;;;5029894;28;20606;-57
2022/08/17 00:11:00;;;;;;;19.60;14.77;;;20.20;99.90;;;;;;5031140;28;20103;-57
2022/08/17 00:13:26;;;;;;;;;;;20.20;99.90;;;;;;5031473;28;20037;-56
2022/08/17 00:15:58;;;;;;;20.60;16.02;;;20.10;99.90;;;;;;5030926;28;19996;-56
2022/08/17 00:18:26;;;;;;;25.67;16.00;;;20.00;99.90;;;;;;5030833;28;20080;-56
2022/08/17 00:20:53;;;;;;;21.55;16.20;;;20.10;99.90;;;;;;5031057;28;20029;-56
2022/08/17 00:23:19;;;;;;;25.75;17.13;;;20.10;99.90;;;;;;5031085;28;20029;-56
2022/08/17 00:25:46;;;;;;;21.50;15.32;;;20.00;99.90;;;;;;5031057;28;20034;-56
2022/08/17 00:28:14;;;;;;;24.87;15.33;;;20.00;99.90;;;;;;5031076;28;20029;-56
2022/08/17 00:30:45;;;;;;;26.95;16.30;;;19.90;99.90;;;;;;5030620;28;20778;-56
2022/08/17 00:33:14;;;;;;;29.23;18.50;;;19.70;99.90;;;;;;5030904;28;20112;-56
2022/08/17 00:35:40;;;;;;;23.33;17.25;;;19.60;99.90;;;;;;5030501;28;20030;-56
2022/08/17 00:38:08;;;;;;;24.30;17.10;;;19.60;99.90;;;;;;5030243;28;20029;-56
2022/08/17 00:40:37;;;;;;;29.85;20.13;;;19.70;99.90;;;;;;5030600;28;20037;-56
2022/08/17 00:43:14;;;;;;;23.77;18.67;;;19.60;99.90;;;;;;5030506;28;20481;-56
2022/08/17 00:45:41;;;;;;;25.65;18.13;;;19.50;99.90;;;;;;5030391;28;20025;-56
2022/08/17 00:48:07;;;;;;;21.48;16.08;;;19.50;99.90;;;;;;5030362;28;20038;-56
2022/08/17 00:50:34;;;;;;;21.92;17.17;;;19.40;99.90;;;;;;5030484;28;20083;-57
2022/08/17 00:53:00;;;;;;;26.80;17.90;;;19.40;99.90;;;;;;5030525;28;20167;-56
2022/08/17 00:55:27;;;;;;;21.35;15.98;;;19.50;99.90;;;;;;5028857;28;20041;-56
2022/08/17 00:57:57;;;;;;;20.90;14.63;;;19.50;99.90;;;;;;5030259;28;20067;-56
2022/08/17 01:00:31;;;;;;;19.02;16.02;;;19.50;99.90;;;;;;5030313;28;20029;-56
2022/08/17 01:03:01;;;;;;;21.27;16.10;;;19.50;99.90;;;;;;5030012;28;20200;-56
2022/08/17 01:05:31;;;;;;;24.80;16.70;;;19.50;99.90;;;;;;5030235;28;20033;-56
2022/08/17 01:07:59;;;;;;;23.30;17.80;;;19.40;99.90;;;;;;5029844;28;20034;-56
2022/08/17 01:10:31;;;;;;;22.33;16.10;;;19.20;99.90;;;;;;5030016;28;20564;-56
2022/08/17 01:13:01;;;;;;;24.23;17.42;;;19.20;99.90;;;;;;5029965;28;20065;-56
2022/08/17 01:15:29;;;;;;;23.10;17.98;;;19.20;99.90;;;;;;5030161;28;20047;-56
2022/08/17 01:17:55;;;;;;;24.38;17.33;;;19.20;99.90;;;;;;5029808;28;20045;-56
2022/08/17 01:20:20;;;;;;;23.85;18.40;;;19.30;99.90;;;;;;5029924;28;20033;-57
2022/08/17 01:22:46;;;;;;;22.92;17.20;;;19.30;99.90;;;;;;5029820;28;20032;-57
2022/08/17 01:25:13;;;;;;;25.77;16.15;;;19.30;99.90;;;;;;5029959;28;20033;-56
2022/08/17 01:27:41;;;;;;;22.48;17.33;;;19.40;99.90;;;;;;5029864;28;20310;-56
2022/08/17 01:30:11;;;;;;;24.10;17.25;;;19.40;99.90;;;;;;5029995;28;20041;-56
2022/08/17 01:32:37;;;;;;;25.33;17.27;;;19.50;99.90;;;;;;5029685;28;20664;-56
2022/08/17 01:35:04;;;;;;;20.65;16.00;;;19.50;99.90;;;;;;5029582;28;20045;-56
2022/08/17 01:37:34;;;;;;;25.77;16.38;;;19.50;99.90;;;;;;5029516;28;20022;-56
2022/08/17 01:40:27;;;;;;;21.48;16.73;;;19.40;99.90;;;;;;5029423;28;20075;-56
2022/08/17 01:43:02;;;;;;;26.08;17.23;;;19.40;99.90;;;;;;5029665;28;20123;-56
2022/08/17 01:45:32;;;;;;;21.67;15.70;;;19.40;99.90;;;;;;5029442;28;20025;-55
2022/08/17 01:47:59;;;;;;;22.83;16.80;;;19.50;99.90;;;;;;5022624;28;20466;-56
2022/08/17 01:50:29;;;;;;;22.83;16.25;;;19.40;99.90;;;;;;5008936;28;20034;-57
2022/08/17 01:53:12;;;;;;;22.88;16.27;;;19.40;99.90;;;;;;5009783;28;20030;-57
2022/08/17 01:55:43;;;;;;;20.90;15.73;;;19.40;99.90;;;;;;5008443;28;20113;-56
2022/08/17 01:58:08;;;;;;;23.77;16.40;;;19.30;99.90;;;;;;5008174;28;20149;-56
2022/08/17 02:00:39;;;;;;;23.70;15.52;;;19.30;99.90;;;;;;5009979;28;20133;-57
2022/08/17 02:03:06;;;;;;;27.25;16.88;;;19.30;99.90;;;;;;5008088;28;20516;-57
2022/08/17 02:05:34;;;;;;;23.33;15.98;;;19.30;99.90;;;;;;5009471;28;20038;-57
2022/08/17 02:08:00;;;;;;;23.13;17.00;;;19.30;99.90;;;;;;5007963;28;20034;-57
2022/08/17 02:10:28;;;;;;;21.60;15.30;;;19.20;99.90;;;;;;5009401;28;20088;-56
2022/08/17 02:12:54;;;;;;;20.92;16.48;;;19.20;99.90;;;;;;5009504;28;20327;-57
2022/08/17 02:15:21;;;;;;;26.40;18.55;;;19.10;99.90;;;;;;5008433;28;20053;-57
2022/08/17 02:17:46;;;;;;;23.73;18.98;;;19.10;99.90;;;;;;5009564;28;20040;-57
2022/08/17 02:20:12;;;;;;;30.33;18.63;;;19.00;99.90;;;;;;5009405;28;20109;-57
2022/08/17 02:22:41;;;;;;;24.83;18.42;;;19.10;99.90;;;;;;5009731;28;20033;-56
2022/08/17 02:25:09;;;;;;;22.67;16.65;;;19.10;99.90;;;;;;5009347;28;20073;-56
2022/08/17 02:27:36;;;;;;;20.65;17.23;;;19.10;99.90;;;;;;5009333;28;20014;-56
2022/08/17 02:30:08;;;;;;;25.15;17.25;;;19.10;99.90;;;;;;5009489;28;20472;-56
2022/08/17 02:32:33;;;;;;;24.27;16.92;;;19.00;99.90;;;;;;5009204;28;20420;-56
2022/08/17 02:35:00;;;;;;;24.50;16.67;;;19.00;99.90;;;;;;5009163;28;20034;-56
2022/08/17 02:37:27;;;;;;;24.77;16.35;;;19.10;99.90;;;;;;5009302;28;20096;-56
2022/08/17 02:39:53;;;;;;;;;;;19.00;99.90;;;;;;5009499;28;20069;-56
2022/08/17 02:42:26;;;;;;;19.63;14.73;;;19.10;99.90;;;;;;5009521;28;19994;-57
2022/08/17 02:44:52;;;;;;;18.13;14.10;;;19.00;99.90;;;;;;5009295;28;20025;-56
2022/08/17 02:47:17;;;;;;;19.75;13.23;;;19.00;99.90;;;;;;5009012;28;20488;-56
2022/08/17 02:49:43;;;;;;;23.23;14.95;;;19.00;99.90;;;;;;5008966;28;20151;-56
2022/08/17 02:52:09;;;;;;;20.05;13.98;;;18.90;99.90;;;;;;5008988;28;20025;-56
2022/08/17 02:54:35;;;;;;;21.05;13.43;;;18.80;99.90;;;;;;5007703;28;20454;-56
2022/08/17 02:57:02;;;;;;;21.03;14.80;;;18.80;99.90;;;;;;5008956;28;20117;-56
2022/08/17 02:59:28;;;;;;;21.07;13.93;;;18.90;99.90;;;;;;5009153;28;20030;-56
2022/08/17 03:01:55;;;;;;;26.35;16.23;;;18.90;99.90;;;;;;5012838;28;20108;-57
2022/08/17 03:04:21;;;;;;;26.48;16.17;;;18.80;99.90;;;;;;5012557;28;20050;-56
2022/08/17 03:06:46;;;;;;;21.10;15.57;;;18.90;99.90;;;;;;5012377;28;20040;-56
2022/08/17 03:09:12;;;;;;;21.85;15.77;;;18.90;99.90;;;;;;5012454;28;20032;-56
2022/08/17 03:11:38;;;;;;;21.85;16.30;;;18.80;99.90;;;;;;5012746;28;20088;-56
2022/08/17 03:14:03;;;;;;;16.90;13.85;;;18.80;99.90;;;;;;5012581;28;20065;-56
2022/08/17 03:16:29;;;;;;;22.92;15.43;;;18.80;99.90;;;;;;5012206;28;20498;-56
2022/08/17 03:18:55;;;;;;;21.48;13.93;;;18.80;99.90;;;;;;5012460;28;20036;-58
2022/08/17 03:21:21;;;;;;;17.67;13.10;;;18.70;99.90;;;;;;5012258;28;20113;-57
2022/08/17 03:23:47;;;;;;;19.88;13.68;;;18.60;99.90;;;;;;5012364;28;20431;-56
2022/08/17 03:26:12;;;;;;;20.70;15.27;;;18.70;99.90;;;;;;5012320;28;20036;-56
2022/08/17 03:28:38;;;;;;;24.92;15.05;;;18.70;99.90;;;;;;5012170;28;20033;-56
2022/08/17 03:31:05;;;;;;;21.10;14.85;;;18.60;99.90;;;;;;5012142;28;20055;-56
2022/08/17 03:33:31;;;;;;;23.42;14.43;;;18.60;99.90;;;;;;5012123;28;20022;-56
2022/08/17 03:35:57;;;;;;;22.92;14.65;;;18.60;99.90;;;;;;5011561;28;20042;-56
2022/08/17 03:38:24;;;;;;;20.77;15.43;;;18.60;99.90;;;;;;5011987;28;20160;-56
2022/08/17 03:40:52;;;;;;;22.27;16.15;;;18.70;99.90;;;;;;5011876;28;20371;-56
2022/08/17 03:43:19;;;;;;;22.63;15.70;;;18.70;99.90;;;;;;5011649;28;20367;-56
2022/08/17 03:57:09;;;;;;;19.50;14.35;;;18.50;99.90;;;;;;5006543;28;20052;-55
2022/08/17 03:59:36;;;;;;;26.42;16.92;;;18.50;99.90;;;;;;5010844;28;20034;-56
2022/08/17 04:02:07;;;;;;;23.00;15.80;;;18.30;99.90;;;;;;5010371;28;20095;-56
2022/08/17 04:04:34;;;;;;;23.35;15.18;;;18.50;99.90;;;;;;5010755;28;20048;-55
2022/08/17 04:07:00;;;;;;;24.98;14.98;;;18.50;99.90;;;;;;5010470;28;20400;-56
2022/08/17 04:09:26;;;;;;;20.13;15.27;;;18.50;99.90;;;;;;5010514;28;20030;-56
2022/08/17 04:11:52;;;;;;;24.33;16.92;;;18.50;99.90;;;;;;5009474;28;20499;-56
2022/08/17 04:14:19;;;;;;;24.87;17.07;;;18.50;99.90;;;;;;5010377;28;20492;-56
2022/08/17 04:16:45;;;;;;;22.13;16.10;;;18.50;99.90;;;;;;5009345;28;20026;-56
2022/08/17 04:19:11;;;;;;;20.58;14.65;;;18.50;99.90;;;;;;5010220;28;20394;-56
2022/08/17 04:21:36;;;;;;;22.83;15.07;;;18.50;99.90;;;;;;5010138;28;20038;-56
2022/08/17 04:24:03;;;;;;;25.23;17.77;;;18.60;99.90;;;;;;5010064;28;20026;-56
2022/08/17 04:26:29;;;;;;;30.85;17.85;;;18.50;99.90;;;;;;5010167;28;20022;-56
2022/08/17 04:28:55;;;;;;;29.27;17.50;;;18.50;99.90;;;;;;4992523;28;20114;-56
2022/08/17 04:31:21;;;;;;;26.20;18.23;;;18.60;99.90;;;;;;5009935;28;20101;-56
2022/08/17 04:33:47;;;;;;;24.25;17.92;;;18.50;99.90;;;;;;5009841;28;20030;-56
2022/08/17 04:36:14;;;;;;;19.90;16.25;;;18.50;99.90;;;;;;5009686;28;20041;-56
2022/08/17 04:38:42;;;;;;;24.55;18.65;;;18.40;99.90;;;;;;5010120;28;20038;-56
2022/08/17 04:43:57;;;;;;;32.28;18.10;;;18.40;99.90;;;;;;5009947;28;20199;-56
2022/08/17 04:46:26;;;;;;;28.67;20.40;;;18.50;99.90;;;;;;5009554;28;20110;-56
2022/08/17 04:48:55;;;;;;;30.25;20.77;;;18.50;99.90;;;;;;5009697;28;20512;-56
2022/08/17 04:51:26;;;;;;;26.23;19.60;;;18.50;99.90;;;;;;5010481;28;20033;-55
2022/08/17 04:53:54;;;;;;;25.65;18.30;;;18.50;99.90;;;;;;5010534;28;20109;-56
2022/08/17 04:56:22;;;;;;;30.10;20.50;;;18.50;99.90;;;;;;5015500;28;20033;-56
2022/08/17 04:58:48;;;;;;;;;;;18.30;99.90;;;;;;5021241;28;20485;-56
2022/08/17 05:01:15;;;;;;;33.72;23.13;;;18.40;99.90;;;;;;5020682;28;20000;-56
2022/08/17 05:03:42;;;;;;;35.85;23.80;;;18.40;99.90;;;;;;5021840;28;20053;-56
2022/08/17 05:06:08;;;;;;;37.13;25.15;;;18.50;99.90;;;;;;5028826;28;20052;-56
2022/08/17 05:08:34;;;;;;;35.10;25.20;;;18.60;99.90;;;;;;5028837;28;20053;-56
2022/08/17 05:11:00;;;;;;;37.42;25.25;;;18.70;99.90;;;;;;5028431;28;20029;-56
2022/08/17 05:13:30;;;;;;;44.92;26.63;;;18.70;99.90;;;;;;5028583;28;20047;-56
2022/08/17 05:16:00;;;;;;;32.47;23.60;;;18.80;99.90;;;;;;5028793;28;20041;-56
2022/08/17 05:18:27;;;;;;;32.80;24.58;;;18.90;99.90;;;;;;5024118;28;20026;-56
2022/08/17 05:20:53;;;;;;;37.17;28.70;;;19.00;99.90;;;;;;5028297;28;20037;-56
2022/08/17 05:23:21;;;;;;;37.63;26.15;;;19.00;99.90;;;;;;5028044;28;20032;-55
2022/08/17 05:25:50;;;;;;;35.72;26.80;;;19.10;99.90;;;;;;5028372;28;20400;-56
2022/08/17 05:28:17;;;;;;;39.60;26.90;;;19.20;99.90;;;;;;5028156;28;20017;-56
2022/08/17 05:30:44;;;;;;;43.17;29.83;;;19.20;99.90;;;;;;5026768;28;20025;-56
2022/08/17 05:33:16;;;;;;;38.50;30.02;;;19.30;99.90;;;;;;5028223;28;20029;-56
2022/08/17 05:35:48;;;;;;;41.75;31.30;;;19.40;99.90;;;;;;5026912;28;20112;-56
2022/08/17 05:38:15;;;;;;;43.42;30.15;;;19.40;99.90;;;;;;5018118;28;20056;-56
2022/08/17 05:40:42;;;;;;;40.08;28.08;;;19.40;99.90;;;;;;5004279;28;20109;-56
2022/08/17 05:43:14;;;;;;;45.93;30.40;;;19.50;99.90;;;;;;5000151;28;20042;-56
2022/08/17 05:45:45;;;;;;;41.78;29.58;;;19.60;99.90;;;;;;4999005;28;20025;-56
2022/08/17 05:48:11;;;;;;;41.17;31.08;;;19.60;99.90;;;;;;5001597;28;20056;-56
2022/08/17 05:50:40;;;;;;;40.45;31.30;;;19.70;99.90;;;;;;5020550;28;20458;-56
2022/08/17 05:53:24;;;;;;;41.33;30.42;;;19.80;99.90;;;;;;5013256;28;20101;-56
2022/08/17 05:56:07;;;;;;;41.47;30.35;;;19.90;99.90;;;;;;4998158;28;20121;-56
2022/08/17 05:59:05;;;;;;;49.63;33.58;;;19.90;99.90;;;;;;4998583;28;20077;-56
2022/08/17 06:01:56;;;;;;;43.42;31.63;;;20.00;99.90;;;;;;4985660;28;20203;-56
2022/08/17 06:04:49;;;;;;;41.60;29.75;;;20.10;99.90;;;;;;5026074;28;20416;-56
2022/08/17 06:07:30;;;;;;;40.85;32.15;;;20.20;99.90;;;;;;5008731;28;20040;-55
2022/08/17 06:10:27;;;;;;;44.00;31.80;;;20.30;99.90;;;;;;5026699;28;20052;-55
2022/08/17 06:13:20;;;;;;;48.38;35.53;;;20.30;99.90;;;;;;5019257;28;20029;-56
2022/08/17 06:16:24;;;;;;;46.58;34.53;;;20.40;99.90;;;;;;5026285;28;20181;-56
2022/08/17 06:19:01;;;;;;;46.85;34.80;;;20.50;99.90;;;;;;5027436;28;20061;-56
2022/08/17 06:21:34;;;;;;;47.92;34.42;;;20.50;99.90;;;;;;5010197;28;20030;-54
2022/08/17 06:24:13;;;;;;;47.13;33.17;;;20.50;99.90;;;;;;5027687;28;20030;-55
2022/08/17 06:26:43;;;;;;;43.60;33.58;;;20.60;99.90;;;;;;5027407;28;20057;-55
2022/08/17 06:29:32;;;;;;;44.45;31.95;;;20.70;99.90;;;;;;5025277;28;20408;-56
2022/08/17 06:31:58;;;;;;;38.90;31.50;;;20.80;99.90;;;;;;5027384;28;20418;-55
2022/08/17 06:34:23;;;;;;;44.97;33.13;;;20.90;99.90;;;;;;5028393;28;20072;-55
2022/08/17 06:37:14;;;;;;;51.70;32.35;;;21.00;99.90;;;;;;5031918;28;20068;-55
2022/08/17 06:40:02;;;;;;;38.92;29.70;;;21.10;99.90;;;;;;5030398;28;20021;-55
2022/08/17 06:42:46;;;;;;;38.08;29.98;;;21.20;99.90;;;;;;5030682;28;20033;-55
2022/08/17 06:45:21;;;;;;;40.22;29.45;;;21.20;99.90;;;;;;5030793;28;20117;-56
2022/08/17 06:47:53;;;;;;;42.90;30.88;;;21.30;99.90;;;;;;5030415;28;20028;-55
2022/08/17 06:50:48;;;;;;;38.28;29.45;;;21.30;99.90;;;;;;5031208;28;20021;-56
2022/08/17 06:53:25;;;;;;;34.58;27.95;;;21.40;99.90;;;;;;5031825;28;20039;-55
2022/08/17 06:55:56;;;;;;;49.03;27.95;;;21.60;99.90;;;;;;5032300;28;20069;-55
2022/08/17 06:58:24;;;;;;;36.20;27.73;;;21.70;99.90;;;;;;5032161;28;20032;-56
2022/08/17 07:00:52;;;;;;;37.67;25.48;;;21.80;99.90;;;;;;5034909;28;20092;-56
2022/08/17 07:03:43;;;;;;;35.35;25.20;;;21.80;99.90;;;;;;5032036;28;20049;-56
2022/08/17 07:06:15;;;;;;;31.48;22.13;;;22.80;99.90;;;;;;5032249;28;20029;-55
2022/08/17 07:09:02;;;;;;;35.05;24.13;;;23.20;99.90;;;;;;5032346;28;20022;-55
2022/08/17 07:11:36;;;;;;;31.75;23.85;;;23.10;99.90;;;;;;5032102;28;20511;-55
2022/08/17 07:14:09;;;;;;;30.35;22.77;;;22.90;99.90;;;;;;5032124;28;20029;-56
2022/08/17 07:16:53;;;;;;;30.80;21.88;;;22.70;99.90;;;;;;5030520;28;20044;-55
2022/08/17 07:19:22;;;;;;;33.05;25.33;;;23.20;99.90;;;;;;5031892;28;20464;-56
2022/08/17 07:22:07;;;;;;;32.92;26.00;;;23.10;99.90;;;;;;5021711;28;20029;-57
2022/08/17 07:25:08;;;;;;;154.65;127.47;;;23.00;99.90;;;;;;5001506;28;20497;-57
2022/08/17 07:27:51;;;;;;;33.40;23.45;;;23.00;99.90;;;;;;4984802;28;20486;-56
2022/08/17 07:30:24;;;;;;;31.05;22.20;;;23.20;99.90;;;;;;5000929;28;20106;-55
2022/08/17 07:33:13;;;;;;;28.15;22.02;;;23.30;99.90;;;;;;5001001;28;20032;-56
2022/08/17 07:35:43;;;;;;;31.90;22.40;;;23.40;99.90;;;;;;5000253;28;20054;-56
2022/08/17 07:38:13;;;;;;;34.22;22.92;;;23.40;99.90;;;;;;4996084;28;20022;-55
2022/08/17 07:41:03;;;;;;;28.13;21.75;;;23.40;99.90;;;;;;5030372;28;20033;-56
2022/08/17 07:43:38;;;;;;;27.55;19.45;;;23.50;99.90;;;;;;5025541;28;20033;-56
2022/08/17 07:49:32;;;;;;;24.33;19.08;;;24.00;99.90;;;;;;5027777;28;20468;-56
2022/08/17 07:52:10;;;;;;;27.30;20.75;;;24.00;99.90;;;;;;5024644;28;20030;-55
2022/08/17 07:54:39;;;;;;;27.13;19.00;;;24.00;99.90;;;;;;5026906;28;20112;-56
2022/08/17 07:57:13;;;;;;;29.60;21.45;;;24.00;99.90;;;;;;5030153;28;20035;-55
2022/08/17 08:00:04;;;;;;;31.50;21.10;;;24.10;99.90;;;;;;5030206;28;20022;-56
2022/08/17 08:02:40;;;;;;;24.25;18.58;;;24.10;99.90;;;;;;5025530;28;20040;-56
2022/08/17 08:05:21;;;;;;;29.70;18.45;;;24.10;99.90;;;;;;5039035;28;20025;-56
2022/08/17 08:07:46;;;;;;;24.20;17.83;;;24.20;99.90;;;;;;5032765;28;20112;-56
2022/08/17 08:10:37;;;;;;;25.85;18.75;;;24.30;99.90;;;;;;5030068;28;20500;-56
2022/08/17 08:13:24;;;;;;;23.58;19.70;;;24.50;99.90;;;;;;5032981;28;20033;-56
2022/08/17 08:15:53;;;;;;;21.63;17.00;;;24.50;99.90;;;;;;5039490;28;20087;-56
2022/08/17 08:18:32;;;;;;;27.45;19.10;;;24.60;99.90;;;;;;5027213;28;20020;-56
2022/08/17 08:21:08;;;;;;;32.88;15.50;;;24.60;99.90;;;;;;5029605;28;20029;-56
2022/08/17 08:23:46;;;;;;;25.58;18.17;;;25.00;99.90;;;;;;5029544;28;20025;-55
2022/08/17 08:26:30;;;;;;;24.30;18.20;;;25.30;99.90;;;;;;5009770;28;20029;-56
2022/08/17 08:29:13;;;;;;;24.08;16.48;;;25.20;99.90;;;;;;5028867;28;20025;-56
2022/08/17 08:32:13;;;;;;;22.80;17.50;;;25.20;99.90;;;;;;5028862;28;20169;-56
2022/08/17 08:35:07;;;;;;;23.63;17.05;;;25.20;99.90;;;;;;5028417;28;20044;-56
2022/08/17 08:37:54;;;;;;;30.40;17.88;;;25.40;99.90;;;;;;5029312;28;20104;-56
2022/08/17 08:40:32;;;;;;;27.52;17.65;;;25.30;99.90;;;;;;5037731;28;20037;-56
2022/08/17 08:43:01;;;;;;;;;;;25.70;99.90;;;;;;5040562;28;20035;-56
2022/08/17 08:45:51;;;;;;;23.45;15.05;;;26.00;99.90;;;;;;5034812;28;19913;-56
2022/08/17 08:48:47;;;;;;;26.95;16.83;;;26.00;99.90;;;;;;5038386;28;20028;-55
2022/08/17 08:51:45;;;;;;;26.23;19.08;;;26.60;99.90;;;;;;5039975;28;20109;-55
2022/08/17 08:54:32;;;;;;;27.10;16.13;;;26.50;99.90;;;;;;5039351;28;20017;-55
2022/08/17 08:57:20;;;;;;;24.50;16.83;;;26.60;99.90;;;;;;5035973;28;20081;-55
2022/08/17 09:00:12;;;;;;;26.30;16.15;;;27.20;99.90;;;;;;5038094;28;20026;-56
2022/08/17 09:02:40;;;;;;;18.30;13.98;;;27.10;99.90;;;;;;5035937;28;20226;-55
2022/08/17 09:05:43;;;;;;;22.55;13.73;;;27.50;99.90;;;;;;5020150;28;20028;-55
2022/08/17 09:08:18;;;;;;;20.00;14.90;;;27.60;99.90;;;;;;5039447;28;20026;-56
2022/08/17 09:11:04;;;;;;;21.02;13.52;;;27.30;99.90;;;;;;5034149;28;20430;-56
2022/08/17 09:13:45;;;;;;;18.90;13.55;;;27.40;99.90;;;;;;5025762;28;20112;-56
2022/08/17 09:16:16;;;;;;;21.52;13.90;;;27.40;99.90;;;;;;5027015;28;20580;-56
2022/08/17 09:18:53;;;;;;;13.75;11.82;;;27.40;99.90;;;;;;5028626;28;20025;-56
2022/08/17 09:21:45;;;;;;;20.48;14.27;;;27.70;99.90;;;;;;5028451;28;20037;-55
2022/08/17 09:24:27;;;;;;;24.65;13.95;;;27.70;99.90;;;;;;5028260;28;20052;-55
2022/08/17 09:27:10;;;;;;;21.45;13.23;;;28.10;99.90;;;;;;5090731;23;20109;-79
2022/08/17 09:29:42;;;;;;;16.85;13.38;;;28.40;99.90;;;;;;5094128;28;20027;-78
2022/08/17 09:32:36;;;;;;;15.90;11.07;;;28.60;99.90;;;;;;5114005;28;20027;-81
2022/08/17 09:35:33;;;;;;;13.73;11.43;;;28.50;99.90;;;;;;5091541;28;20384;-79
2022/08/17 09:38:21;;;;;;;15.85;11.20;;;28.70;99.90;;;;;;5091161;28;20578;-78
2022/08/17 09:41:14;;;;;;;14.18;10.68;;;29.00;99.90;;;;;;5091422;28;20031;-80
2022/08/17 09:43:53;;;;;;;15.20;11.02;;;28.90;99.90;;;;;;5053744;27;21061;-83
2022/08/17 09:46:32;;;;;;;12.48;11.13;;;29.00;99.90;;;;;;5095300;28;20055;-78
2022/08/17 09:49:25;;;;;;;27.95;24.80;;;29.50;99.90;;;;;;5117094;27;20126;-78
2022/08/17 09:52:02;;;;;;;14.02;11.32;;;29.40;98.90;;;;;;5103877;27;20027;-80
2022/08/17 09:57:22;;;;;;;14.73;9.95;;;29.30;99.90;;;;;;5048587;22;20056;-58
2022/08/17 09:59:59;;;;;;;14.35;10.13;;;29.80;96.70;;;;;;5029487;28;20091;-56
2022/08/17 10:02:50;;;;;;;12.88;9.93;;;30.00;98.40;;;;;;5031639;28;20104;-56
2022/08/17 10:05:42;;;;;;;13.70;9.90;;;30.00;99.90;;;;;;5029255;28;20044;-56
2022/08/17 10:08:26;;;;;;;15.43;10.20;;;30.00;97.90;;;;;;5036910;28;20423;-55
2022/08/17 10:11:13;;;;;;;13.50;9.43;;;30.50;96.30;;;;;;5036963;28;20101;-58
2022/08/17 10:13:44;;;;;;;11.15;8.98;;;30.40;90.80;;;;;;5047596;28;20028;-55
2022/08/17 10:16:10;;;;;;;13.27;9.27;;;30.50;91.20;;;;;;5049130;28;20066;-55
2022/08/17 10:18:51;;;;;;;11.38;9.02;;;30.70;92.30;;;;;;5048803;28;20487;-55
2022/08/17 10:27:37;;;;;;;13.90;9.82;;;30.70;93.50;;;;;;5049175;28;20075;-56
2022/08/17 10:30:04;;;;;;;13.60;9.27;;;30.80;94.40;;;;;;5034124;28;20025;-56
2022/08/17 10:32:38;;;;;;;13.23;9.60;;;30.70;94.10;;;;;;5038144;28;20041;-56
2022/08/17 10:35:15;;;;;;;17.55;9.68;;;30.70;92.70;;;;;;5048952;28;20064;-56
2022/08/17 10:38:01;;;;;;;22.13;16.42;;;30.70;95.00;;;;;;5045299;28;20017;-56
2022/08/17 10:40:56;;;;;;;16.80;9.07;;;31.10;92.40;;;;;;5048651;28;20037;-56
2022/08/17 10:43:34;;;;;;;10.40;8.63;;;31.10;90.30;;;;;;5048870;28;20033;-56
2022/08/17 10:46:37;;;;;;;10.13;8.27;;;31.20;91.60;;;;;;5048458;28;20591;-57
2022/08/17 10:49:37;;;;;;;13.02;8.55;;;31.30;88.70;;;;;;5005236;28;20029;-56
2022/08/17 10:52:22;;;;;;;10.60;8.48;;;31.20;92.30;;;;;;4990329;28;20183;-56
2022/08/17 10:54:51;;;;;;;9.02;7.38;;;31.50;88.00;;;;;;5041791;28;20044;-57
2022/08/17 10:57:43;;;;;;;9.77;7.70;;;31.50;82.60;;;;;;5042764;28;20163;-58
2022/08/17 11:00:26;;;;;;;13.02;8.07;;;32.00;92.10;;;;;;5039678;28;20111;-57
2022/08/17 11:02:54;;;;;;;11.45;8.65;;;32.00;83.10;;;;;;5039443;28;20044;-58
2022/08/17 11:05:39;;;;;;;9.32;7.85;;;32.40;84.00;;;;;;5048274;28;20040;-57
2022/08/17 11:08:32;;;;;;;10.57;7.70;;;32.30;83.00;;;;;;5048171;28;20026;-58
2022/08/17 11:11:19;;;;;;;10.10;8.60;;;33.00;85.00;;;;;;5034319;28;20469;-57
2022/08/17 11:14:13;;;;;;;17.20;8.32;;;32.50;85.20;;;;;;5028425;28;20033;-57
2022/08/17 11:17:08;;;;;;;10.93;7.82;;;32.10;83.60;;;;;;5033676;28;20049;-57
2022/08/17 11:20:03;;;;;;;11.32;8.68;;;32.00;78.50;;;;;;5039260;28;20075;-58
2022/08/17 11:23:03;;;;;;;11.77;8.07;;;32.30;77.80;;;;;;5039653;28;20029;-58
2022/08/17 11:25:50;;;;;;;11.82;8.25;;;32.00;73.90;;;;;;5031685;28;20021;-57
2022/08/17 11:28:33;;;;;;;12.82;7.93;;;31.90;76.60;;;;;;5031592;28;20036;-58
2022/08/17 11:31:07;;;;;;;13.07;8.30;;;32.00;81.00;;;;;;5030110;28;20549;-57
2022/08/17 11:33:32;;;;;;;50.17;44.75;;;32.00;84.20;;;;;;5031928;28;20033;-57
2022/08/17 11:36:13;;;;;;;9.87;8.67;;;32.10;75.90;;;;;;5040901;28;20040;-57
2022/08/17 11:38:56;;;;;;;11.80;7.60;;;32.50;75.70;;;;;;5036537;28;20487;-57
2022/08/17 11:41:26;;;;;;;68.20;12.40;;;32.80;73.20;;;;;;5038708;28;20444;-58
2022/08/17 11:44:14;;;;;;;15.80;9.32;;;32.40;76.40;;;;;;5040225;28;20049;-58
2022/08/17 11:52:48;;;;;;;9.43;7.97;;;32.50;77.50;;;;;;5041264;28;20392;-58
2022/08/17 11:55:33;;;;;;;13.80;7.80;;;32.50;82.00;;;;;;5040455;28;20519;-57
2022/08/17 11:58:25;;;;;;;13.70;7.43;;;32.50;77.40;;;;;;5044496;28;20060;-58
2022/08/17 12:01:06;;;;;;;11.75;8.38;;;32.70;74.70;;;;;;5048252;28;20045;-56
2022/08/17 12:03:35;;;;;;;10.98;8.02;;;32.90;73.30;;;;;;5031738;28;20029;-57
2022/08/17 12:06:26;;;;;;;12.68;8.00;;;32.90;71.20;;;;;;5031221;28;20052;-55
2022/08/17 12:09:14;;;;;;;11.10;8.45;;;32.80;74.80;;;;;;5031278;28;20061;-56
2022/08/17 12:12:04;;;;;;;10.73;8.80;;;32.70;70.60;;;;;;5033773;28;20514;-57
2022/08/17 12:14:33;;;;;;;10.55;8.57;;;32.60;73.80;;;;;;5050997;28;20087;-56
2022/08/17 12:17:08;;;;;;;9.57;7.80;;;33.30;76.60;;;;;;5049609;28;20032;-56
2022/08/17 12:19:36;;;;;;;9.30;7.43;;;33.80;71.00;;;;;;5050900;28;20017;-56
2022/08/17 12:22:08;;;;;;;10.52;7.95;;;34.40;69.10;;;;;;5051032;28;20029;-56
2022/08/17 12:24:49;;;;;;;11.25;8.18;;;35.00;66.20;;;;;;5050863;28;20031;-56
2022/08/17 12:27:35;;;;;;;12.80;8.68;;;35.30;66.50;;;;;;5050686;28;20033;-57
2022/08/17 12:30:09;;;;;;;11.65;7.63;;;35.10;66.10;;;;;;5050705;28;20192;-57
2022/08/17 12:32:39;;;;;;;11.20;7.47;;;34.30;69.60;;;;;;5049398;28;20032;-56
2022/08/17 12:35:26;;;;;;;9.07;7.82;;;34.20;65.60;;;;;;5047403;28;20048;-56
2022/08/17 12:37:53;;;;;;;10.88;7.00;;;33.90;66.50;;;;;;5041308;28;20040;-56
2022/08/17 12:40:22;;;;;;;10.20;6.95;;;33.60;66.00;;;;;;5050629;28;20365;-56
2022/08/17 12:43:02;;;;;;;9.73;7.18;;;33.80;65.70;;;;;;5046299;28;20025;-57
2022/08/17 12:45:29;;;;;;;8.43;6.80;;;34.00;68.00;;;;;;5040885;28;20068;-56
2022/08/17 12:48:11;;;;;;;9.80;7.20;;;33.70;63.80;;;;;;5039542;28;20033;-56
2022/08/17 12:50:41;;;;;;;10.25;7.47;;;33.60;64.10;;;;;;5040033;28;20082;-56
2022/08/17 12:53:30;;;;;;;10.18;7.78;;;33.70;63.60;;;;;;5042085;28;20021;-56
2022/08/17 12:56:00;;;;;;;10.68;8.15;;;33.70;65.70;;;;;;5040057;28;20483;-55
2022/08/17 12:58:33;;;;;;;8.70;7.40;;;33.70;69.20;;;;;;5049727;28;20394;-55
2022/08/17 13:01:12;;;;;;;10.95;7.55;;;33.60;67.50;;;;;;5050025;28;20035;-57
2022/08/17 13:03:42;;;;;;;9.07;7.93;;;33.50;73.90;;;;;;5050042;28;20021;-55
2022/08/17 13:06:13;;;;;;;11.20;7.55;;;34.20;64.90;;;;;;5049757;28;20094;-56
2022/08/17 13:08:42;;;;;;;9.63;7.22;;;34.20;66.10;;;;;;5049411;28;20144;-57
2022/08/17 13:11:09;;;;;;;8.43;7.22;;;34.30;62.50;;;;;;5047410;28;20047;-58
2022/08/17 13:13:37;;;;;;;10.77;6.95;;;34.40;63.70;;;;;;5047480;28;20472;-55
2022/08/17 13:16:16;;;;;;;10.32;6.70;;;34.20;67.30;;;;;;5048777;28;20106;-58
2022/08/17 13:18:43;;;;;;;8.63;6.55;;;34.50;63.70;;;;;;5048533;28;20457;-58
2022/08/17 13:21:18;;;;;;;15.38;7.40;;;34.60;64.70;;;;;;5049508;28;20623;-58
2022/08/17 13:24:00;;;;;;;10.52;7.50;;;34.40;63.30;;;;;;5049505;28;20025;-57
2022/08/17 13:27:05;;;;;;;12.88;7.03;;;34.70;66.40;;;;;;5049627;28;20033;-56
2022/08/17 13:29:44;;;;;;;8.73;6.90;;;34.90;64.40;;;;;;5046608;28;20398;-58
2022/08/17 13:32:10;;;;;;;9.45;6.85;;;35.80;61.10;;;;;;5029275;28;20025;-58
2022/08/17 13:34:53;;;;;;;6.93;6.23;;;35.30;63.20;;;;;;5035492;28;20025;-58
2022/08/17 13:37:33;;;;;;;11.05;7.43;;;36.10;59.70;;;;;;5029421;28;20437;-56
2022/08/17 13:40:08;;;;;;;8.82;6.32;;;35.50;62.10;;;;;;5029053;28;20116;-57
2022/08/17 13:42:48;;;;;;;8.57;7.28;;;34.90;64.00;;;;;;5033452;28;20033;-57